sensor_id;sensor_type;location;lat;lon;timestamp;P1;durP1;ratioP1;P2;durP2;ratioP2
9657;SDS011;4867;48.112;11.622;2022-07-23T00:01:24;8.43;;;7.70;;
9657;SDS011;4867;48.112;11.622;2022-07-23T00:03:53;8.20;;;7.40;;
9657;SDS011;4867;48.112;11.622;2022-07-23T00:06:21;8.40;;;7.70;;
9657;SDS011;4867;48.112;11.622;2022-07-23T00:08:49;8.07;;;7.47;;
9657;SDS011;4867;48.112;11.622;2022-07-23T00:11:16;8.53;;;7.83;;
9657;SDS011;4867;48.112;11.622;2022-07-23T00:13:43;8.60;;;7.80;;
9657;SDS011;4867;48.112;11.622;2022-07-23T00:16:11;9.50;;;7.23;;
9657;SDS011;4867;48.112;11.622;2022-07-23T00:18:39;8.67;;;7.80;;
9657;SDS011;4867;48.112;11.622;2022-07-23T00:21:06;9.30;;;8.00;;
9657;SDS011;4867;48.112;11.622;2022-07-23T00:23:33;8.33;;;7.67;;
9657;SDS011;4867;48.112;11.622;2022-07-23T00:26:00;8.70;;;7.80;;
9657;SDS011;4867;48.112;11.622;2022-07-23T00:28:27;7.83;;;7.23;;
9657;SDS011;4867;48.112;11.622;2022-07-23T00:30:55;7.77;;;7.07;;
9657;SDS011;4867;48.112;11.622;2022-07-23T00:33:21;8.03;;;7.33;;
9657;SDS011;4867;48.112;11.622;2022-07-23T00:35:48;7.60;;;7.00;;
9657;SDS011;4867;48.112;11.622;2022-07-23T00:38:15;7.70;;;7.10;;
9657;SDS011;4867;48.112;11.622;2022-07-23T00:40:42;8.10;;;7.40;;
9657;SDS011;4867;48.112;11.622;2022-07-23T00:43:09;7.13;;;6.43;;
9657;SDS011;4867;48.112;11.622;2022-07-23T00:45:36;7.77;;;7.17;;
9657;SDS011;4867;48.112;11.622;2022-07-23T00:48:03;8.47;;;7.67;;
9657;SDS011;4867;48.112;11.622;2022-07-23T00:50:30;8.10;;;7.30;;
9657;SDS011;4867;48.112;11.622;2022-07-23T00:52:58;7.80;;;7.13;;
9657;SDS011;4867;48.112;11.622;2022-07-23T00:55:25;7.40;;;6.80;;
9657;SDS011;4867;48.112;11.622;2022-07-23T00:57:53;7.30;;;6.60;;
9657;SDS011;4867;48.112;11.622;2022-07-23T01:00:21;7.87;;;7.07;;
9657;SDS011;4867;48.112;11.622;2022-07-23T01:02:48;7.67;;;7.07;;
9657;SDS011;4867;48.112;11.622;2022-07-23T01:05:15;8.00;;;7.30;;
9657;SDS011;4867;48.112;11.622;2022-07-23T01:07:44;7.60;;;7.00;;
9657;SDS011;4867;48.112;11.622;2022-07-23T01:10:12;7.30;;;6.80;;
9657;SDS011;4867;48.112;11.622;2022-07-23T01:12:58;8.27;;;7.57;;
9657;SDS011;4867;48.112;11.622;2022-07-23T01:15:31;8.13;;;7.43;;
9657;SDS011;4867;48.112;11.622;2022-07-23T01:18:00;7.90;;;7.17;;
9657;SDS011;4867;48.112;11.622;2022-07-23T01:20:28;9.07;;;7.47;;
9657;SDS011;4867;48.112;11.622;2022-07-23T01:22:56;9.60;;;7.73;;
9657;SDS011;4867;48.112;11.622;2022-07-23T01:25:23;11.57;;;8.47;;
9657;SDS011;4867;48.112;11.622;2022-07-23T01:27:56;9.27;;;8.37;;
9657;SDS011;4867;48.112;11.622;2022-07-23T01:30:25;9.87;;;7.97;;
9657;SDS011;4867;48.112;11.622;2022-07-23T01:32:52;15.23;;;8.13;;
9657;SDS011;4867;48.112;11.622;2022-07-23T01:35:20;25.87;;;8.73;;
9657;SDS011;4867;48.112;11.622;2022-07-23T01:37:48;19.63;;;7.50;;
9657;SDS011;4867;48.112;11.622;2022-07-23T01:40:17;10.40;;;6.80;;
9657;SDS011;4867;48.112;11.622;2022-07-23T01:42:44;16.60;;;6.47;;
9657;SDS011;4867;48.112;11.622;2022-07-23T01:45:12;6.17;;;4.43;;
9657;SDS011;4867;48.112;11.622;2022-07-23T01:47:44;7.17;;;4.47;;
9657;SDS011;4867;48.112;11.622;2022-07-23T01:50:12;8.20;;;4.47;;
9657;SDS011;4867;48.112;11.622;2022-07-23T01:52:59;6.27;;;4.80;;
9657;SDS011;4867;48.112;11.622;2022-07-23T01:55:26;6.70;;;5.50;;
9657;SDS011;4867;48.112;11.622;2022-07-23T01:57:53;6.20;;;5.60;;
9657;SDS011;4867;48.112;11.622;2022-07-23T02:00:25;6.83;;;5.70;;
9657;SDS011;4867;48.112;11.622;2022-07-23T02:02:52;5.90;;;5.40;;
9657;SDS011;4867;48.112;11.622;2022-07-23T02:05:19;6.47;;;5.87;;
9657;SDS011;4867;48.112;11.622;2022-07-23T02:07:46;6.13;;;5.53;;
9657;SDS011;4867;48.112;11.622;2022-07-23T02:10:13;5.93;;;5.33;;
9657;SDS011;4867;48.112;11.622;2022-07-23T02:12:40;6.83;;;6.13;;
9657;SDS011;4867;48.112;11.622;2022-07-23T02:15:09;6.47;;;5.87;;
9657;SDS011;4867;48.112;11.622;2022-07-23T02:17:38;7.40;;;6.20;;
9657;SDS011;4867;48.112;11.622;2022-07-23T02:20:07;7.87;;;6.00;;
9657;SDS011;4867;48.112;11.622;2022-07-23T02:22:35;6.37;;;5.83;;
9657;SDS011;4867;48.112;11.622;2022-07-23T02:25:06;5.93;;;5.43;;
9657;SDS011;4867;48.112;11.622;2022-07-23T02:27:34;6.10;;;4.77;;
9657;SDS011;4867;48.112;11.622;2022-07-23T02:30:04;5.43;;;3.80;;
9657;SDS011;4867;48.112;11.622;2022-07-23T02:32:33;4.53;;;4.13;;
9657;SDS011;4867;48.112;11.622;2022-07-23T02:35:01;4.63;;;4.03;;
9657;SDS011;4867;48.112;11.622;2022-07-23T02:37:30;4.87;;;3.50;;
9657;SDS011;4867;48.112;11.622;2022-07-23T02:39:58;4.27;;;3.53;;
9657;SDS011;4867;48.112;11.622;2022-07-23T02:42:25;3.97;;;3.50;;
9657;SDS011;4867;48.112;11.622;2022-07-23T02:44:52;3.80;;;3.40;;
9657;SDS011;4867;48.112;11.622;2022-07-23T02:47:19;4.67;;;3.50;;
9657;SDS011;4867;48.112;11.622;2022-07-23T02:49:45;3.73;;;3.43;;
9657;SDS011;4867;48.112;11.622;2022-07-23T02:52:12;4.07;;;3.70;;
9657;SDS011;4867;48.112;11.622;2022-07-23T02:54:41;4.23;;;3.60;;
9657;SDS011;4867;48.112;11.622;2022-07-23T02:57:10;4.80;;;3.40;;
9657;SDS011;4867;48.112;11.622;2022-07-23T02:59:37;3.70;;;3.40;;
9657;SDS011;4867;48.112;11.622;2022-07-23T03:02:04;7.37;;;4.10;;
9657;SDS011;4867;48.112;11.622;2022-07-23T03:04:31;11.87;;;5.43;;
9657;SDS011;4867;48.112;11.622;2022-07-23T03:06:58;5.90;;;4.03;;
9657;SDS011;4867;48.112;11.622;2022-07-23T03:09:25;9.07;;;4.80;;
9657;SDS011;4867;48.112;11.622;2022-07-23T03:11:52;5.27;;;4.70;;
9657;SDS011;4867;48.112;11.622;2022-07-23T03:14:19;7.60;;;4.90;;
9657;SDS011;4867;48.112;11.622;2022-07-23T03:16:46;6.50;;;5.43;;
9657;SDS011;4867;48.112;11.622;2022-07-23T03:19:13;7.80;;;5.50;;
9657;SDS011;4867;48.112;11.622;2022-07-23T03:21:40;9.43;;;5.57;;
9657;SDS011;4867;48.112;11.622;2022-07-23T03:24:08;7.37;;;5.87;;
9657;SDS011;4867;48.112;11.622;2022-07-23T03:26:36;6.30;;;5.57;;
9657;SDS011;4867;48.112;11.622;2022-07-23T03:29:03;7.73;;;5.80;;
9657;SDS011;4867;48.112;11.622;2022-07-23T03:31:31;6.63;;;6.00;;
9657;SDS011;4867;48.112;11.622;2022-07-23T03:33:58;7.63;;;6.10;;
9657;SDS011;4867;48.112;11.622;2022-07-23T03:36:26;8.40;;;6.80;;
9657;SDS011;4867;48.112;11.622;2022-07-23T03:38:54;7.87;;;7.03;;
9657;SDS011;4867;48.112;11.622;2022-07-23T03:41:21;7.27;;;6.67;;
9657;SDS011;4867;48.112;11.622;2022-07-23T03:43:48;6.40;;;5.90;;
9657;SDS011;4867;48.112;11.622;2022-07-23T03:46:15;7.83;;;6.10;;
9657;SDS011;4867;48.112;11.622;2022-07-23T03:48:42;7.40;;;5.90;;
9657;SDS011;4867;48.112;11.622;2022-07-23T03:51:09;6.83;;;6.17;;
9657;SDS011;4867;48.112;11.622;2022-07-23T03:53:36;6.50;;;6.00;;
9657;SDS011;4867;48.112;11.622;2022-07-23T03:56:03;7.07;;;6.47;;
9657;SDS011;4867;48.112;11.622;2022-07-23T03:58:30;6.40;;;5.90;;
9657;SDS011;4867;48.112;11.622;2022-07-23T04:00:57;7.07;;;6.33;;
9657;SDS011;4867;48.112;11.622;2022-07-23T04:03:24;8.00;;;6.40;;
9657;SDS011;4867;48.112;11.622;2022-07-23T04:05:52;7.07;;;6.47;;
9657;SDS011;4867;48.112;11.622;2022-07-23T04:08:20;6.40;;;5.80;;
9657;SDS011;4867;48.112;11.622;2022-07-23T04:10:50;7.23;;;6.53;;
9657;SDS011;4867;48.112;11.622;2022-07-23T04:13:17;7.57;;;6.77;;
9657;SDS011;4867;48.112;11.622;2022-07-23T04:15:44;7.60;;;6.70;;
9657;SDS011;4867;48.112;11.622;2022-07-23T04:18:11;8.27;;;6.90;;
9657;SDS011;4867;48.112;11.622;2022-07-23T04:20:48;10.13;;;7.57;;
9657;SDS011;4867;48.112;11.622;2022-07-23T04:23:15;8.10;;;7.50;;
9657;SDS011;4867;48.112;11.622;2022-07-23T04:25:45;8.63;;;7.07;;
9657;SDS011;4867;48.112;11.622;2022-07-23T04:28:12;8.37;;;7.43;;
9657;SDS011;4867;48.112;11.622;2022-07-23T04:30:40;8.80;;;7.73;;
9657;SDS011;4867;48.112;11.622;2022-07-23T04:33:09;7.73;;;7.00;;
9657;SDS011;4867;48.112;11.622;2022-07-23T04:35:37;7.80;;;6.97;;
9657;SDS011;4867;48.112;11.622;2022-07-23T04:38:13;8.03;;;7.33;;
9657;SDS011;4867;48.112;11.622;2022-07-23T04:40:40;8.87;;;7.80;;
9657;SDS011;4867;48.112;11.622;2022-07-23T04:43:07;9.83;;;8.70;;
9657;SDS011;4867;48.112;11.622;2022-07-23T04:45:42;8.27;;;7.60;;
9657;SDS011;4867;48.112;11.622;2022-07-23T04:48:09;8.10;;;7.30;;
9657;SDS011;4867;48.112;11.622;2022-07-23T04:50:37;8.33;;;7.50;;
9657;SDS011;4867;48.112;11.622;2022-07-23T04:53:04;7.90;;;7.10;;
9657;SDS011;4867;48.112;11.622;2022-07-23T04:55:32;9.10;;;8.07;;
9657;SDS011;4867;48.112;11.622;2022-07-23T04:57:58;8.70;;;7.90;;
9657;SDS011;4867;48.112;11.622;2022-07-23T05:00:25;9.27;;;8.47;;
9657;SDS011;4867;48.112;11.622;2022-07-23T05:02:52;9.00;;;8.10;;
9657;SDS011;4867;48.112;11.622;2022-07-23T05:05:19;9.60;;;8.70;;
9657;SDS011;4867;48.112;11.622;2022-07-23T05:07:46;9.53;;;7.93;;
9657;SDS011;4867;48.112;11.622;2022-07-23T05:10:13;8.97;;;8.20;;
9657;SDS011;4867;48.112;11.622;2022-07-23T05:12:40;8.77;;;7.97;;
9657;SDS011;4867;48.112;11.622;2022-07-23T05:15:07;8.00;;;7.30;;
9657;SDS011;4867;48.112;11.622;2022-07-23T05:17:35;7.90;;;7.10;;
9657;SDS011;4867;48.112;11.622;2022-07-23T05:20:09;8.67;;;7.77;;
9657;SDS011;4867;48.112;11.622;2022-07-23T05:22:36;8.93;;;8.13;;
9657;SDS011;4867;48.112;11.622;2022-07-23T05:25:03;8.33;;;7.53;;
9657;SDS011;4867;48.112;11.622;2022-07-23T05:27:31;9.03;;;8.23;;
9657;SDS011;4867;48.112;11.622;2022-07-23T05:29:58;8.57;;;7.77;;
9657;SDS011;4867;48.112;11.622;2022-07-23T05:32:25;7.77;;;7.07;;
9657;SDS011;4867;48.112;11.622;2022-07-23T05:35:04;8.43;;;7.70;;
9657;SDS011;4867;48.112;11.622;2022-07-23T05:37:34;9.60;;;8.80;;
9657;SDS011;4867;48.112;11.622;2022-07-23T05:40:06;10.23;;;7.20;;
9657;SDS011;4867;48.112;11.622;2022-07-23T05:42:35;8.60;;;7.80;;
9657;SDS011;4867;48.112;11.622;2022-07-23T05:45:03;7.90;;;7.30;;
9657;SDS011;4867;48.112;11.622;2022-07-23T05:50:07;8.73;;;7.93;;
9657;SDS011;4867;48.112;11.622;2022-07-23T05:52:41;9.00;;;8.20;;
9657;SDS011;4867;48.112;11.622;2022-07-23T05:55:28;9.33;;;8.53;;
9657;SDS011;4867;48.112;11.622;2022-07-23T05:57:57;9.23;;;8.47;;
9657;SDS011;4867;48.112;11.622;2022-07-23T06:00:26;10.37;;;8.53;;
9657;SDS011;4867;48.112;11.622;2022-07-23T06:02:54;10.27;;;8.03;;
9657;SDS011;4867;48.112;11.622;2022-07-23T06:05:22;9.17;;;8.17;;
9657;SDS011;4867;48.112;11.622;2022-07-23T06:07:51;9.17;;;8.37;;
9657;SDS011;4867;48.112;11.622;2022-07-23T06:10:20;9.20;;;8.33;;
9657;SDS011;4867;48.112;11.622;2022-07-23T06:12:47;8.93;;;8.03;;
9657;SDS011;4867;48.112;11.622;2022-07-23T06:15:14;9.00;;;8.20;;
9657;SDS011;4867;48.112;11.622;2022-07-23T06:17:41;10.50;;;8.67;;
9657;SDS011;4867;48.112;11.622;2022-07-23T06:20:08;9.37;;;8.30;;
9657;SDS011;4867;48.112;11.622;2022-07-23T06:22:38;10.40;;;9.40;;
9657;SDS011;4867;48.112;11.622;2022-07-23T06:25:05;8.90;;;7.93;;
9657;SDS011;4867;48.112;11.622;2022-07-23T06:27:45;10.57;;;8.90;;
9657;SDS011;4867;48.112;11.622;2022-07-23T06:30:12;13.97;;;8.73;;
9657;SDS011;4867;48.112;11.622;2022-07-23T06:32:44;10.23;;;8.90;;
9657;SDS011;4867;48.112;11.622;2022-07-23T06:35:13;8.73;;;8.03;;
9657;SDS011;4867;48.112;11.622;2022-07-23T06:37:41;10.07;;;9.13;;
9657;SDS011;4867;48.112;11.622;2022-07-23T06:40:08;9.90;;;9.10;;
9657;SDS011;4867;48.112;11.622;2022-07-23T06:42:37;9.60;;;8.80;;
9657;SDS011;4867;48.112;11.622;2022-07-23T06:45:06;10.13;;;9.33;;
9657;SDS011;4867;48.112;11.622;2022-07-23T06:47:35;10.00;;;9.10;;
9657;SDS011;4867;48.112;11.622;2022-07-23T06:50:02;10.37;;;9.53;;
9657;SDS011;4867;48.112;11.622;2022-07-23T06:52:29;10.37;;;9.47;;
9657;SDS011;4867;48.112;11.622;2022-07-23T06:54:56;9.97;;;9.03;;
9657;SDS011;4867;48.112;11.622;2022-07-23T06:57:23;10.53;;;9.53;;
9657;SDS011;4867;48.112;11.622;2022-07-23T06:59:51;10.33;;;8.77;;
9657;SDS011;4867;48.112;11.622;2022-07-23T07:02:21;9.63;;;8.17;;
9657;SDS011;4867;48.112;11.622;2022-07-23T07:04:48;9.53;;;8.73;;
9657;SDS011;4867;48.112;11.622;2022-07-23T07:07:15;8.90;;;8.20;;
9657;SDS011;4867;48.112;11.622;2022-07-23T07:09:42;8.90;;;8.00;;
9657;SDS011;4867;48.112;11.622;2022-07-23T07:12:13;9.07;;;8.37;;
9657;SDS011;4867;48.112;11.622;2022-07-23T07:14:40;8.97;;;8.07;;
9657;SDS011;4867;48.112;11.622;2022-07-23T07:17:07;9.23;;;8.53;;
9657;SDS011;4867;48.112;11.622;2022-07-23T07:19:34;8.90;;;8.10;;
9657;SDS011;4867;48.112;11.622;2022-07-23T07:22:01;9.80;;;8.20;;
9657;SDS011;4867;48.112;11.622;2022-07-23T07:24:30;9.37;;;8.47;;
9657;SDS011;4867;48.112;11.622;2022-07-23T07:27:03;8.67;;;7.97;;
9657;SDS011;4867;48.112;11.622;2022-07-23T07:29:30;9.10;;;8.30;;
9657;SDS011;4867;48.112;11.622;2022-07-23T07:31:57;8.60;;;7.97;;
9657;SDS011;4867;48.112;11.622;2022-07-23T07:34:24;8.47;;;7.87;;
9657;SDS011;4867;48.112;11.622;2022-07-23T07:36:51;9.10;;;8.20;;
9657;SDS011;4867;48.112;11.622;2022-07-23T07:39:18;8.87;;;8.07;;
9657;SDS011;4867;48.112;11.622;2022-07-23T07:41:45;9.20;;;8.40;;
9657;SDS011;4867;48.112;11.622;2022-07-23T07:44:12;8.93;;;8.13;;
9657;SDS011;4867;48.112;11.622;2022-07-23T07:46:38;8.90;;;8.17;;
9657;SDS011;4867;48.112;11.622;2022-07-23T07:49:05;9.03;;;8.10;;
9657;SDS011;4867;48.112;11.622;2022-07-23T07:51:40;9.10;;;8.20;;
9657;SDS011;4867;48.112;11.622;2022-07-23T07:54:10;8.97;;;8.27;;
9657;SDS011;4867;48.112;11.622;2022-07-23T07:56:38;8.93;;;8.03;;
9657;SDS011;4867;48.112;11.622;2022-07-23T07:59:06;10.13;;;9.23;;
9657;SDS011;4867;48.112;11.622;2022-07-23T08:01:33;9.50;;;8.73;;
9657;SDS011;4867;48.112;11.622;2022-07-23T08:04:00;9.50;;;8.70;;
9657;SDS011;4867;48.112;11.622;2022-07-23T08:06:28;9.40;;;8.60;;
9657;SDS011;4867;48.112;11.622;2022-07-23T08:08:55;8.97;;;8.27;;
9657;SDS011;4867;48.112;11.622;2022-07-23T08:11:22;9.40;;;8.60;;
9657;SDS011;4867;48.112;11.622;2022-07-23T08:13:48;9.43;;;8.63;;
9657;SDS011;4867;48.112;11.622;2022-07-23T08:16:15;9.43;;;8.63;;
9657;SDS011;4867;48.112;11.622;2022-07-23T08:18:42;9.27;;;8.37;;
9657;SDS011;4867;48.112;11.622;2022-07-23T08:21:09;9.73;;;8.47;;
9657;SDS011;4867;48.112;11.622;2022-07-23T08:23:37;8.63;;;7.90;;
9657;SDS011;4867;48.112;11.622;2022-07-23T08:26:04;8.60;;;7.87;;
9657;SDS011;4867;48.112;11.622;2022-07-23T08:28:31;9.03;;;8.17;;
9657;SDS011;4867;48.112;11.622;2022-07-23T08:31:00;9.10;;;8.20;;
9657;SDS011;4867;48.112;11.622;2022-07-23T08:33:28;8.77;;;8.07;;
9657;SDS011;4867;48.112;11.622;2022-07-23T08:36:00;8.53;;;7.80;;
9657;SDS011;4867;48.112;11.622;2022-07-23T08:38:29;9.30;;;8.40;;
9657;SDS011;4867;48.112;11.622;2022-07-23T08:40:56;8.97;;;8.17;;
9657;SDS011;4867;48.112;11.622;2022-07-23T08:43:25;8.50;;;7.90;;
9657;SDS011;4867;48.112;11.622;2022-07-23T08:45:54;9.17;;;8.27;;
9657;SDS011;4867;48.112;11.622;2022-07-23T08:48:30;9.07;;;8.23;;
9657;SDS011;4867;48.112;11.622;2022-07-23T08:51:05;8.80;;;8.07;;
9657;SDS011;4867;48.112;11.622;2022-07-23T08:53:33;8.43;;;7.77;;
9657;SDS011;4867;48.112;11.622;2022-07-23T08:56:05;8.20;;;7.57;;
9657;SDS011;4867;48.112;11.622;2022-07-23T08:58:35;8.30;;;7.70;;
9657;SDS011;4867;48.112;11.622;2022-07-23T09:01:02;8.33;;;7.60;;
9657;SDS011;4867;48.112;11.622;2022-07-23T09:03:34;9.30;;;8.50;;
9657;SDS011;4867;48.112;11.622;2022-07-23T09:06:02;12.53;;;9.93;;
9657;SDS011;4867;48.112;11.622;2022-07-23T09:11:10;8.33;;;7.73;;
9657;SDS011;4867;48.112;11.622;2022-07-23T09:13:40;8.03;;;7.33;;
9657;SDS011;4867;48.112;11.622;2022-07-23T09:19:04;7.50;;;6.90;;
9657;SDS011;4867;48.112;11.622;2022-07-23T09:21:33;8.10;;;7.40;;
9657;SDS011;4867;48.112;11.622;2022-07-23T09:24:01;7.83;;;7.23;;
9657;SDS011;4867;48.112;11.622;2022-07-23T09:26:38;8.03;;;7.43;;
9657;SDS011;4867;48.112;11.622;2022-07-23T09:31:46;7.90;;;7.20;;
9657;SDS011;4867;48.112;11.622;2022-07-23T09:34:21;7.27;;;6.67;;
9657;SDS011;4867;48.112;11.622;2022-07-23T09:36:53;7.93;;;7.27;;
9657;SDS011;4867;48.112;11.622;2022-07-23T09:39:24;7.97;;;7.30;;
9657;SDS011;4867;48.112;11.622;2022-07-23T09:41:56;7.97;;;7.27;;
9657;SDS011;4867;48.112;11.622;2022-07-23T09:44:23;8.43;;;7.53;;
9657;SDS011;4867;48.112;11.622;2022-07-23T09:46:57;7.83;;;7.03;;
9657;SDS011;4867;48.112;11.622;2022-07-23T09:49:26;7.50;;;6.90;;
9657;SDS011;4867;48.112;11.622;2022-07-23T09:51:56;7.65;;;6.95;;
9657;SDS011;4867;48.112;11.622;2022-07-23T09:54:29;7.70;;;7.10;;
9657;SDS011;4867;48.112;11.622;2022-07-23T09:57:08;8.20;;;6.60;;
9657;SDS011;4867;48.112;11.622;2022-07-23T09:59:42;7.63;;;7.03;;
9657;SDS011;4867;48.112;11.622;2022-07-23T10:02:11;6.78;;;6.20;;
9657;SDS011;4867;48.112;11.622;2022-07-23T10:05:02;7.07;;;6.45;;
9657;SDS011;4867;48.112;11.622;2022-07-23T10:07:50;7.28;;;6.70;;
9657;SDS011;4867;48.112;11.622;2022-07-23T10:10:54;7.38;;;6.75;;
9657;SDS011;4867;48.112;11.622;2022-07-23T10:13:21;7.10;;;6.50;;
9657;SDS011;4867;48.112;11.622;2022-07-23T10:16:18;7.22;;;6.47;;
9657;SDS011;4867;48.112;11.622;2022-07-23T10:18:52;6.47;;;5.97;;
9657;SDS011;4867;48.112;11.622;2022-07-23T10:27:09;6.82;;;6.18;;
9657;SDS011;4867;48.112;11.622;2022-07-23T10:29:51;6.47;;;5.97;;
9657;SDS011;4867;48.112;11.622;2022-07-23T10:35:09;6.93;;;6.32;;
9657;SDS011;4867;48.112;11.622;2022-07-23T10:37:56;8.52;;;6.05;;
9657;SDS011;4867;48.112;11.622;2022-07-23T10:40:53;7.35;;;6.28;;
9657;SDS011;4867;48.112;11.622;2022-07-23T10:43:23;6.78;;;6.20;;
9657;SDS011;4867;48.112;11.622;2022-07-23T10:45:51;7.85;;;6.13;;
9657;SDS011;4867;48.112;11.622;2022-07-23T10:51:06;6.38;;;5.88;;
9657;SDS011;4867;48.112;11.622;2022-07-23T10:59:22;7.53;;;6.07;;
9657;SDS011;4867;48.112;11.622;2022-07-23T11:01:49;7.47;;;5.50;;
9657;SDS011;4867;48.112;11.622;2022-07-23T11:04:17;8.15;;;5.85;;
9657;SDS011;4867;48.112;11.622;2022-07-23T11:09:26;6.28;;;5.65;;
9657;SDS011;4867;48.112;11.622;2022-07-23T11:12:40;6.90;;;6.20;;
9657;SDS011;4867;48.112;11.622;2022-07-23T11:17:39;8.60;;;5.97;;
9657;SDS011;4867;48.112;11.622;2022-07-23T11:25:06;6.85;;;5.85;;
9657;SDS011;4867;48.112;11.622;2022-07-23T11:27:40;8.63;;;6.75;;
9657;SDS011;4867;48.112;11.622;2022-07-23T11:30:08;9.60;;;8.70;;
9657;SDS011;4867;48.112;11.622;2022-07-23T11:32:40;6.75;;;6.15;;
9657;SDS011;4867;48.112;11.622;2022-07-23T11:35:18;6.68;;;6.00;;
9657;SDS011;4867;48.112;11.622;2022-07-23T11:37:50;6.78;;;6.18;;
9657;SDS011;4867;48.112;11.622;2022-07-23T11:40:25;7.65;;;6.40;;
9657;SDS011;4867;48.112;11.622;2022-07-23T11:45:23;7.80;;;6.38;;
9657;SDS011;4867;48.112;11.622;2022-07-23T11:47:52;7.25;;;6.55;;
9657;SDS011;4867;48.112;11.622;2022-07-23T11:50:24;7.05;;;6.45;;
9657;SDS011;4867;48.112;11.622;2022-07-23T11:52:52;7.30;;;6.70;;
9657;SDS011;4867;48.112;11.622;2022-07-23T11:55:20;9.07;;;6.90;;
9657;SDS011;4867;48.112;11.622;2022-07-23T11:57:47;7.35;;;6.65;;
9657;SDS011;4867;48.112;11.622;2022-07-23T12:00:17;7.47;;;6.78;;
9657;SDS011;4867;48.112;11.622;2022-07-23T12:02:50;7.30;;;6.60;;
9657;SDS011;4867;48.112;11.622;2022-07-23T12:05:22;7.93;;;7.22;;
9657;SDS011;4867;48.112;11.622;2022-07-23T12:07:51;7.47;;;6.88;;
9657;SDS011;4867;48.112;11.622;2022-07-23T12:13:03;8.40;;;6.72;;
9657;SDS011;4867;48.112;11.622;2022-07-23T12:15:43;8.52;;;7.63;;
9657;SDS011;4867;48.112;11.622;2022-07-23T12:18:13;7.20;;;6.60;;
9657;SDS011;4867;48.112;11.622;2022-07-23T12:20:42;8.52;;;6.93;;
9657;SDS011;4867;48.112;11.622;2022-07-23T12:23:14;7.72;;;6.93;;
9657;SDS011;4867;48.112;11.622;2022-07-23T12:25:46;7.70;;;7.00;;
9657;SDS011;4867;48.112;11.622;2022-07-23T12:28:16;7.07;;;6.47;;
9657;SDS011;4867;48.112;11.622;2022-07-23T12:30:46;7.15;;;6.55;;
9657;SDS011;4867;48.112;11.622;2022-07-23T12:33:21;7.90;;;7.30;;
9657;SDS011;4867;48.112;11.622;2022-07-23T12:35:59;7.88;;;7.18;;
9657;SDS011;4867;48.112;11.622;2022-07-23T12:38:36;7.40;;;6.80;;
9657;SDS011;4867;48.112;11.622;2022-07-23T12:41:05;7.70;;;7.10;;
9657;SDS011;4867;48.112;11.622;2022-07-23T12:43:32;7.70;;;6.95;;
9657;SDS011;4867;48.112;11.622;2022-07-23T12:46:09;8.00;;;6.55;;
9657;SDS011;4867;48.112;11.622;2022-07-23T12:48:39;7.15;;;6.55;;
9657;SDS011;4867;48.112;11.622;2022-07-23T12:51:25;8.13;;;7.32;;
9657;SDS011;4867;48.112;11.622;2022-07-23T12:53:56;7.20;;;6.60;;
9657;SDS011;4867;48.112;11.622;2022-07-23T12:59:09;7.10;;;6.50;;
9657;SDS011;4867;48.112;11.622;2022-07-23T13:01:41;8.60;;;7.35;;
9657;SDS011;4867;48.112;11.622;2022-07-23T13:04:12;7.38;;;6.70;;
9657;SDS011;4867;48.112;11.622;2022-07-23T13:06:46;9.43;;;6.95;;
9657;SDS011;4867;48.112;11.622;2022-07-23T13:09:16;7.43;;;6.82;;
9657;SDS011;4867;48.112;11.622;2022-07-23T13:11:45;7.80;;;6.97;;
9657;SDS011;4867;48.112;11.622;2022-07-23T13:14:13;7.35;;;6.68;;
9657;SDS011;4867;48.112;11.622;2022-07-23T13:16:41;8.20;;;7.50;;
9657;SDS011;4867;48.112;11.622;2022-07-23T13:19:09;8.38;;;7.68;;
9657;SDS011;4867;48.112;11.622;2022-07-23T13:21:37;7.97;;;7.28;;
9657;SDS011;4867;48.112;11.622;2022-07-23T13:24:05;9.43;;;7.60;;
9657;SDS011;4867;48.112;11.622;2022-07-23T13:26:35;7.53;;;6.93;;
9657;SDS011;4867;48.112;11.622;2022-07-23T13:29:03;7.93;;;7.32;;
9657;SDS011;4867;48.112;11.622;2022-07-23T13:31:35;7.93;;;7.32;;
9657;SDS011;4867;48.112;11.622;2022-07-23T13:34:04;8.18;;;7.53;;
9657;SDS011;4867;48.112;11.622;2022-07-23T13:36:32;7.93;;;7.18;;
9657;SDS011;4867;48.112;11.622;2022-07-23T13:39:00;8.20;;;7.50;;
9657;SDS011;4867;48.112;11.622;2022-07-23T13:41:28;9.30;;;7.82;;
9657;SDS011;4867;48.112;11.622;2022-07-23T13:43:55;8.85;;;7.97;;
9657;SDS011;4867;48.112;11.622;2022-07-23T13:46:23;8.15;;;7.35;;
9657;SDS011;4867;48.112;11.622;2022-07-23T13:48:51;8.80;;;8.10;;
9657;SDS011;4867;48.112;11.622;2022-07-23T13:51:17;9.07;;;8.27;;
9657;SDS011;4867;48.112;11.622;2022-07-23T13:53:45;8.40;;;7.60;;
9657;SDS011;4867;48.112;11.622;2022-07-23T13:56:12;7.70;;;7.07;;
9657;SDS011;4867;48.112;11.622;2022-07-23T13:58:39;7.30;;;6.70;;
9657;SDS011;4867;48.112;11.622;2022-07-23T14:01:07;7.15;;;6.57;;
9657;SDS011;4867;48.112;11.622;2022-07-23T14:03:34;7.45;;;6.85;;
9657;SDS011;4867;48.112;11.622;2022-07-23T14:06:01;8.10;;;7.30;;
9657;SDS011;4867;48.112;11.622;2022-07-23T14:08:28;7.40;;;6.80;;
9657;SDS011;4867;48.112;11.622;2022-07-23T14:10:55;7.78;;;7.13;;
9657;SDS011;4867;48.112;11.622;2022-07-23T14:13:24;7.75;;;6.90;;
9657;SDS011;4867;48.112;11.622;2022-07-23T14:15:51;8.18;;;7.47;;
9657;SDS011;4867;48.112;11.622;2022-07-23T14:18:18;8.57;;;7.78;;
9657;SDS011;4867;48.112;11.622;2022-07-23T14:20:47;9.05;;;8.25;;
9657;SDS011;4867;48.112;11.622;2022-07-23T14:23:13;9.65;;;8.80;;
9657;SDS011;4867;48.112;11.622;2022-07-23T14:25:40;8.35;;;7.63;;
9657;SDS011;4867;48.112;11.622;2022-07-23T14:28:08;8.07;;;7.28;;
9657;SDS011;4867;48.112;11.622;2022-07-23T14:30:35;7.70;;;7.10;;
9657;SDS011;4867;48.112;11.622;2022-07-23T14:33:03;8.00;;;7.28;;
9657;SDS011;4867;48.112;11.622;2022-07-23T14:35:30;7.77;;;6.97;;
9657;SDS011;4867;48.112;11.622;2022-07-23T14:37:57;7.50;;;6.90;;
9657;SDS011;4867;48.112;11.622;2022-07-23T14:40:24;7.83;;;7.03;;
9657;SDS011;4867;48.112;11.622;2022-07-23T14:42:54;7.10;;;6.53;;
9657;SDS011;4867;48.112;11.622;2022-07-23T14:45:21;7.22;;;6.72;;
9657;SDS011;4867;48.112;11.622;2022-07-23T14:47:48;7.90;;;7.22;;
9657;SDS011;4867;48.112;11.622;2022-07-23T14:50:14;7.22;;;6.63;;
9657;SDS011;4867;48.112;11.622;2022-07-23T14:52:42;8.10;;;7.30;;
9657;SDS011;4867;48.112;11.622;2022-07-23T14:55:09;8.32;;;7.53;;
9657;SDS011;4867;48.112;11.622;2022-07-23T14:57:36;8.02;;;7.40;;
9657;SDS011;4867;48.112;11.622;2022-07-23T15:00:03;8.77;;;7.97;;
9657;SDS011;4867;48.112;11.622;2022-07-23T15:02:34;8.05;;;7.35;;
9657;SDS011;4867;48.112;11.622;2022-07-23T15:05:01;8.05;;;7.35;;
9657;SDS011;4867;48.112;11.622;2022-07-23T15:07:32;8.45;;;7.75;;
9657;SDS011;4867;48.112;11.622;2022-07-23T15:09:59;8.60;;;7.80;;
9657;SDS011;4867;48.112;11.622;2022-07-23T15:12:28;8.40;;;7.70;;
9657;SDS011;4867;48.112;11.622;2022-07-23T15:14:55;8.45;;;7.75;;
9657;SDS011;4867;48.112;11.622;2022-07-23T15:17:22;8.70;;;7.80;;
9657;SDS011;4867;48.112;11.622;2022-07-23T15:19:52;8.27;;;7.47;;
9657;SDS011;4867;48.112;11.622;2022-07-23T15:22:19;8.40;;;7.72;;
9657;SDS011;4867;48.112;11.622;2022-07-23T15:24:45;9.48;;;7.55;;
9657;SDS011;4867;48.112;11.622;2022-07-23T15:27:13;8.43;;;7.70;;
9657;SDS011;4867;48.112;11.622;2022-07-23T15:29:42;8.30;;;7.70;;
9657;SDS011;4867;48.112;11.622;2022-07-23T15:32:09;8.68;;;7.97;;
9657;SDS011;4867;48.112;11.622;2022-07-23T15:34:38;9.68;;;8.68;;
9657;SDS011;4867;48.112;11.622;2022-07-23T15:37:05;8.75;;;8.02;;
9657;SDS011;4867;48.112;11.622;2022-07-23T15:39:37;8.73;;;8.02;;
9657;SDS011;4867;48.112;11.622;2022-07-23T15:42:03;9.10;;;8.35;;
9657;SDS011;4867;48.112;11.622;2022-07-23T15:44:38;8.90;;;8.10;;
9657;SDS011;4867;48.112;11.622;2022-07-23T15:47:05;9.75;;;8.25;;
9657;SDS011;4867;48.112;11.622;2022-07-23T15:49:38;8.30;;;7.60;;
9657;SDS011;4867;48.112;11.622;2022-07-23T15:52:06;8.82;;;8.02;;
9657;SDS011;4867;48.112;11.622;2022-07-23T15:54:36;8.95;;;8.05;;
9657;SDS011;4867;48.112;11.622;2022-07-23T15:57:06;8.95;;;8.15;;
9657;SDS011;4867;48.112;11.622;2022-07-23T15:59:34;8.65;;;7.95;;